sensor_id;sensor_type;location;lat;lon;timestamp;P1;durP1;ratioP1;P2;durP2;ratioP2
36377;SDS011;22402;42.746;23.606;2023-05-10T00:17:52;1.73;;;1.63;;
36377;SDS011;22402;42.746;23.606;2023-05-10T00:20:18;1.83;;;1.70;;
36377;SDS011;22402;42.746;23.606;2023-05-10T00:22:43;2.27;;;1.73;;
36377;SDS011;22402;42.746;23.606;2023-05-10T00:25:09;1.50;;;1.40;;
36377;SDS011;22402;42.746;23.606;2023-05-10T00:27:35;1.93;;;1.83;;
36377;SDS011;22402;42.746;23.606;2023-05-10T00:30:01;1.40;;;1.30;;
36377;SDS011;22402;42.746;23.606;2023-05-10T00:32:26;1.63;;;1.53;;
36377;SDS011;22402;42.746;23.606;2023-05-10T00:34:52;1.30;;;1.20;;
36377;SDS011;22402;42.746;23.606;2023-05-10T00:37:17;1.73;;;1.63;;
36377;SDS011;22402;42.746;23.606;2023-05-10T00:39:43;2.30;;;1.70;;
36377;SDS011;22402;42.746;23.606;2023-05-10T00:42:08;1.90;;;1.63;;
36377;SDS011;22402;42.746;23.606;2023-05-10T00:44:34;2.10;;;1.80;;
36377;SDS011;22402;42.746;23.606;2023-05-10T00:46:59;1.73;;;1.60;;
36377;SDS011;22402;42.746;23.606;2023-05-10T00:49:24;1.83;;;1.67;;
36377;SDS011;22402;42.746;23.606;2023-05-10T00:51:50;1.70;;;1.60;;
36377;SDS011;22402;42.746;23.606;2023-05-10T00:54:16;1.60;;;1.50;;
36377;SDS011;22402;42.746;23.606;2023-05-10T00:56:41;1.50;;;1.40;;
36377;SDS011;22402;42.746;23.606;2023-05-10T00:59:13;2.80;;;2.20;;
36377;SDS011;22402;42.746;23.606;2023-05-10T01:01:39;1.50;;;1.40;;
36377;SDS011;22402;42.746;23.606;2023-05-10T01:04:04;1.43;;;1.33;;
36377;SDS011;22402;42.746;23.606;2023-05-10T01:06:30;1.77;;;1.67;;
36377;SDS011;22402;42.746;23.606;2023-05-10T01:08:56;1.53;;;1.43;;
36377;SDS011;22402;42.746;23.606;2023-05-10T01:11:21;1.60;;;1.50;;
36377;SDS011;22402;42.746;23.606;2023-05-10T01:13:47;2.07;;;1.93;;
36377;SDS011;22402;42.746;23.606;2023-05-10T01:16:20;1.60;;;1.50;;
36377;SDS011;22402;42.746;23.606;2023-05-10T01:18:46;1.50;;;1.40;;
36377;SDS011;22402;42.746;23.606;2023-05-10T01:32:29;1.60;;;1.40;;
36377;SDS011;22402;42.746;23.606;2023-05-10T01:35:15;1.50;;;1.40;;
36377;SDS011;22402;42.746;23.606;2023-05-10T01:38:32;2.00;;;1.80;;
36377;SDS011;22402;42.746;23.606;2023-05-10T01:41:12;2.00;;;1.80;;
36377;SDS011;22402;42.746;23.606;2023-05-10T01:44:05;1.60;;;1.50;;
36377;SDS011;22402;42.746;23.606;2023-05-10T01:46:34;1.30;;;1.20;;
36377;SDS011;22402;42.746;23.606;2023-05-10T01:49:07;1.70;;;1.60;;
36377;SDS011;22402;42.746;23.606;2023-05-10T01:51:39;1.40;;;1.30;;
36377;SDS011;22402;42.746;23.606;2023-05-10T01:54:09;1.73;;;1.63;;
36377;SDS011;22402;42.746;23.606;2023-05-10T01:56:38;1.70;;;1.60;;
36377;SDS011;22402;42.746;23.606;2023-05-10T01:59:07;1.57;;;1.47;;
36377;SDS011;22402;42.746;23.606;2023-05-10T02:01:38;1.60;;;1.50;;
36377;SDS011;22402;42.746;23.606;2023-05-10T02:04:04;1.60;;;1.47;;
36377;SDS011;22402;42.746;23.606;2023-05-10T02:06:32;2.40;;;1.47;;
36377;SDS011;22402;42.746;23.606;2023-05-10T02:08:59;1.63;;;1.53;;
36377;SDS011;22402;42.746;23.606;2023-05-10T02:11:26;1.80;;;1.30;;
36377;SDS011;22402;42.746;23.606;2023-05-10T02:13:54;1.70;;;1.60;;
36377;SDS011;22402;42.746;23.606;2023-05-10T02:16:21;1.50;;;1.40;;
36377;SDS011;22402;42.746;23.606;2023-05-10T02:18:50;1.50;;;1.40;;
36377;SDS011;22402;42.746;23.606;2023-05-10T02:21:17;1.60;;;1.50;;
36377;SDS011;22402;42.746;23.606;2023-05-10T02:23:45;1.30;;;1.20;;
36377;SDS011;22402;42.746;23.606;2023-05-10T02:26:14;2.03;;;1.87;;
36377;SDS011;22402;42.746;23.606;2023-05-10T02:28:41;2.40;;;1.77;;
36377;SDS011;22402;42.746;23.606;2023-05-10T02:31:08;2.00;;;1.20;;
36377;SDS011;22402;42.746;23.606;2023-05-10T02:33:35;1.57;;;1.47;;
36377;SDS011;22402;42.746;23.606;2023-05-10T02:36:04;1.57;;;1.47;;
36377;SDS011;22402;42.746;23.606;2023-05-10T02:38:31;1.43;;;1.27;;
36377;SDS011;22402;42.746;23.606;2023-05-10T02:40:58;1.60;;;1.50;;
36377;SDS011;22402;42.746;23.606;2023-05-10T02:43:24;2.40;;;1.93;;
36377;SDS011;22402;42.746;23.606;2023-05-10T02:48:26;2.20;;;1.47;;
36377;SDS011;22402;42.746;23.606;2023-05-10T02:50:52;1.50;;;1.40;;
36377;SDS011;22402;42.746;23.606;2023-05-10T02:53:21;1.80;;;1.53;;
36377;SDS011;22402;42.746;23.606;2023-05-10T02:55:52;2.10;;;1.90;;
36377;SDS011;22402;42.746;23.606;2023-05-10T02:58:22;4.33;;;1.60;;
36377;SDS011;22402;42.746;23.606;2023-05-10T03:00:47;1.60;;;1.50;;
36377;SDS011;22402;42.746;23.606;2023-05-10T03:03:13;1.40;;;1.30;;
36377;SDS011;22402;42.746;23.606;2023-05-10T03:05:38;1.97;;;1.80;;
36377;SDS011;22402;42.746;23.606;2023-05-10T03:08:04;1.90;;;1.80;;
36377;SDS011;22402;42.746;23.606;2023-05-10T03:10:31;1.97;;;1.67;;
36377;SDS011;22402;42.746;23.606;2023-05-10T03:18:44;2.47;;;2.00;;
36377;SDS011;22402;42.746;23.606;2023-05-10T03:21:30;1.47;;;1.37;;
36377;SDS011;22402;42.746;23.606;2023-05-10T03:23:58;2.23;;;1.60;;
36377;SDS011;22402;42.746;23.606;2023-05-10T03:26:30;2.70;;;1.60;;
36377;SDS011;22402;42.746;23.606;2023-05-10T03:28:56;2.20;;;2.10;;
36377;SDS011;22402;42.746;23.606;2023-05-10T03:31:24;2.27;;;1.73;;
36377;SDS011;22402;42.746;23.606;2023-05-10T03:33:50;3.07;;;1.50;;
36377;SDS011;22402;42.746;23.606;2023-05-10T03:36:17;2.57;;;1.93;;
36377;SDS011;22402;42.746;23.606;2023-05-10T03:38:42;2.97;;;2.30;;
36377;SDS011;22402;42.746;23.606;2023-05-10T03:41:08;4.70;;;2.20;;
36377;SDS011;22402;42.746;23.606;2023-05-10T03:43:33;1.83;;;1.73;;
36377;SDS011;22402;42.746;23.606;2023-05-10T03:46:01;2.00;;;1.80;;
36377;SDS011;22402;42.746;23.606;2023-05-10T03:48:27;1.73;;;1.60;;
36377;SDS011;22402;42.746;23.606;2023-05-10T03:50:52;1.90;;;1.80;;
36377;SDS011;22402;42.746;23.606;2023-05-10T03:53:18;3.87;;;2.10;;
36377;SDS011;22402;42.746;23.606;2023-05-10T03:55:43;2.17;;;2.00;;
36377;SDS011;22402;42.746;23.606;2023-05-10T03:58:11;2.57;;;1.80;;
36377;SDS011;22402;42.746;23.606;2023-05-10T04:00:37;2.07;;;1.90;;
36377;SDS011;22402;42.746;23.606;2023-05-10T04:03:08;2.30;;;2.10;;
36377;SDS011;22402;42.746;23.606;2023-05-10T04:05:34;3.73;;;1.93;;
36377;SDS011;22402;42.746;23.606;2023-05-10T04:08:00;1.97;;;1.87;;
36377;SDS011;22402;42.746;23.606;2023-05-10T04:10:25;2.47;;;1.80;;
36377;SDS011;22402;42.746;23.606;2023-05-10T04:12:50;2.20;;;2.00;;
36377;SDS011;22402;42.746;23.606;2023-05-10T04:15:16;2.37;;;2.20;;
36377;SDS011;22402;42.746;23.606;2023-05-10T04:17:41;2.20;;;2.03;;
36377;SDS011;22402;42.746;23.606;2023-05-10T04:20:07;3.03;;;2.63;;
36377;SDS011;22402;42.746;23.606;2023-05-10T04:22:33;3.10;;;2.37;;
36377;SDS011;22402;42.746;23.606;2023-05-10T04:24:58;2.90;;;2.60;;
36377;SDS011;22402;42.746;23.606;2023-05-10T04:27:24;5.47;;;2.50;;
36377;SDS011;22402;42.746;23.606;2023-05-10T04:29:49;2.20;;;2.00;;
36377;SDS011;22402;42.746;23.606;2023-05-10T04:32:15;2.17;;;1.97;;
36377;SDS011;22402;42.746;23.606;2023-05-10T04:34:42;2.50;;;2.00;;
36377;SDS011;22402;42.746;23.606;2023-05-10T04:37:08;3.63;;;2.20;;
36377;SDS011;22402;42.746;23.606;2023-05-10T04:39:33;5.73;;;2.50;;
36377;SDS011;22402;42.746;23.606;2023-05-10T04:42:00;6.40;;;2.53;;
36377;SDS011;22402;42.746;23.606;2023-05-10T04:44:27;3.63;;;2.43;;
36377;SDS011;22402;42.746;23.606;2023-05-10T04:46:53;2.97;;;2.50;;
36377;SDS011;22402;42.746;23.606;2023-05-10T04:49:18;4.90;;;3.00;;
36377;SDS011;22402;42.746;23.606;2023-05-10T04:51:44;3.57;;;2.70;;
36377;SDS011;22402;42.746;23.606;2023-05-10T04:54:10;4.70;;;2.60;;
36377;SDS011;22402;42.746;23.606;2023-05-10T04:56:35;8.67;;;3.80;;
36377;SDS011;22402;42.746;23.606;2023-05-10T04:59:01;4.60;;;3.57;;
36377;SDS011;22402;42.746;23.606;2023-05-10T05:01:26;3.80;;;2.97;;
36377;SDS011;22402;42.746;23.606;2023-05-10T05:03:52;5.67;;;3.50;;
36377;SDS011;22402;42.746;23.606;2023-05-10T05:06:17;4.27;;;3.03;;
36377;SDS011;22402;42.746;23.606;2023-05-10T05:08:43;3.77;;;2.73;;
36377;SDS011;22402;42.746;23.606;2023-05-10T05:11:08;7.57;;;3.60;;
36377;SDS011;22402;42.746;23.606;2023-05-10T05:13:34;3.93;;;3.17;;
36377;SDS011;22402;42.746;23.606;2023-05-10T05:16:00;3.30;;;3.00;;
36377;SDS011;22402;42.746;23.606;2023-05-10T05:18:27;4.80;;;3.37;;
36377;SDS011;22402;42.746;23.606;2023-05-10T05:20:53;3.53;;;2.70;;
36377;SDS011;22402;42.746;23.606;2023-05-10T05:23:18;5.77;;;3.20;;
36377;SDS011;22402;42.746;23.606;2023-05-10T05:25:45;2.83;;;2.63;;
36377;SDS011;22402;42.746;23.606;2023-05-10T05:28:11;4.90;;;2.80;;
36377;SDS011;22402;42.746;23.606;2023-05-10T05:30:36;4.40;;;4.00;;
36377;SDS011;22402;42.746;23.606;2023-05-10T05:33:02;3.00;;;2.33;;
36377;SDS011;22402;42.746;23.606;2023-05-10T05:35:28;3.80;;;3.00;;
36377;SDS011;22402;42.746;23.606;2023-05-10T05:37:53;4.23;;;2.73;;
36377;SDS011;22402;42.746;23.606;2023-05-10T05:40:18;4.07;;;3.40;;
36377;SDS011;22402;42.746;23.606;2023-05-10T05:42:45;3.43;;;2.40;;
36377;SDS011;22402;42.746;23.606;2023-05-10T05:45:10;3.27;;;2.73;;
36377;SDS011;22402;42.746;23.606;2023-05-10T05:47:38;4.20;;;2.97;;
36377;SDS011;22402;42.746;23.606;2023-05-10T05:50:04;3.50;;;2.90;;
36377;SDS011;22402;42.746;23.606;2023-05-10T05:52:30;6.03;;;2.90;;
36377;SDS011;22402;42.746;23.606;2023-05-10T05:54:55;4.30;;;3.10;;
36377;SDS011;22402;42.746;23.606;2023-05-10T05:57:21;2.93;;;2.53;;
36377;SDS011;22402;42.746;23.606;2023-05-10T05:59:46;3.73;;;2.77;;
36377;SDS011;22402;42.746;23.606;2023-05-10T06:02:12;3.70;;;2.70;;
36377;SDS011;22402;42.746;23.606;2023-05-10T06:04:38;4.70;;;3.00;;
36377;SDS011;22402;42.746;23.606;2023-05-10T06:07:04;3.87;;;2.73;;
36377;SDS011;22402;42.746;23.606;2023-05-10T06:09:30;3.20;;;2.63;;
36377;SDS011;22402;42.746;23.606;2023-05-10T06:11:55;3.47;;;2.57;;
36377;SDS011;22402;42.746;23.606;2023-05-10T06:14:24;3.20;;;2.83;;
36377;SDS011;22402;42.746;23.606;2023-05-10T06:16:50;3.17;;;2.37;;
36377;SDS011;22402;42.746;23.606;2023-05-10T06:19:15;2.70;;;2.50;;
36377;SDS011;22402;42.746;23.606;2023-05-10T06:21:40;3.17;;;2.87;;
36377;SDS011;22402;42.746;23.606;2023-05-10T06:24:06;3.83;;;2.70;;
36377;SDS011;22402;42.746;23.606;2023-05-10T06:26:32;2.93;;;2.63;;
36377;SDS011;22402;42.746;23.606;2023-05-10T06:28:59;3.07;;;2.77;;
36377;SDS011;22402;42.746;23.606;2023-05-10T06:31:26;3.00;;;2.50;;
36377;SDS011;22402;42.746;23.606;2023-05-10T06:33:51;4.10;;;2.90;;
36377;SDS011;22402;42.746;23.606;2023-05-10T06:36:17;2.97;;;2.70;;
36377;SDS011;22402;42.746;23.606;2023-05-10T06:38:42;3.10;;;2.80;;
36377;SDS011;22402;42.746;23.606;2023-05-10T06:41:08;2.50;;;2.30;;
36377;SDS011;22402;42.746;23.606;2023-05-10T06:43:33;3.13;;;2.83;;
36377;SDS011;22402;42.746;23.606;2023-05-10T06:45:59;3.47;;;2.80;;
36377;SDS011;22402;42.746;23.606;2023-05-10T06:48:25;3.03;;;2.70;;
36377;SDS011;22402;42.746;23.606;2023-05-10T06:50:50;3.80;;;2.63;;
36377;SDS011;22402;42.746;23.606;2023-05-10T06:53:16;4.23;;;2.70;;
36377;SDS011;22402;42.746;23.606;2023-05-10T06:55:41;4.00;;;3.17;;
36377;SDS011;22402;42.746;23.606;2023-05-10T06:58:07;4.43;;;3.00;;
36377;SDS011;22402;42.746;23.606;2023-05-10T07:00:32;2.90;;;2.60;;
36377;SDS011;22402;42.746;23.606;2023-05-10T07:02:58;4.10;;;2.87;;
36377;SDS011;22402;42.746;23.606;2023-05-10T07:05:23;6.17;;;2.70;;
36377;SDS011;22402;42.746;23.606;2023-05-10T07:07:49;6.13;;;2.40;;
36377;SDS011;22402;42.746;23.606;2023-05-10T07:10:15;3.20;;;2.90;;
36377;SDS011;22402;42.746;23.606;2023-05-10T07:12:40;3.10;;;2.47;;
36377;SDS011;22402;42.746;23.606;2023-05-10T07:15:06;4.70;;;3.20;;
36377;SDS011;22402;42.746;23.606;2023-05-10T07:17:32;3.33;;;2.50;;
36377;SDS011;22402;42.746;23.606;2023-05-10T07:19:58;6.37;;;2.60;;
36377;SDS011;22402;42.746;23.606;2023-05-10T07:22:25;5.43;;;3.07;;
36377;SDS011;22402;42.746;23.606;2023-05-10T07:24:50;5.20;;;3.23;;
36377;SDS011;22402;42.746;23.606;2023-05-10T07:27:16;3.00;;;2.70;;
36377;SDS011;22402;42.746;23.606;2023-05-10T07:29:41;4.80;;;3.10;;
36377;SDS011;22402;42.746;23.606;2023-05-10T07:32:07;3.60;;;2.73;;
36377;SDS011;22402;42.746;23.606;2023-05-10T07:34:33;4.27;;;3.37;;
36377;SDS011;22402;42.746;23.606;2023-05-10T07:36:58;4.20;;;3.13;;
36377;SDS011;22402;42.746;23.606;2023-05-10T07:39:24;3.43;;;2.70;;
36377;SDS011;22402;42.746;23.606;2023-05-10T07:41:50;3.60;;;3.03;;
36377;SDS011;22402;42.746;23.606;2023-05-10T07:44:15;2.90;;;2.70;;
36377;SDS011;22402;42.746;23.606;2023-05-10T07:46:43;4.90;;;3.40;;
36377;SDS011;22402;42.746;23.606;2023-05-10T07:49:09;5.30;;;4.23;;
36377;SDS011;22402;42.746;23.606;2023-05-10T07:51:34;5.20;;;4.10;;
36377;SDS011;22402;42.746;23.606;2023-05-10T07:54:00;6.00;;;4.00;;
36377;SDS011;22402;42.746;23.606;2023-05-10T07:56:29;5.20;;;4.40;;
36377;SDS011;22402;42.746;23.606;2023-05-10T07:58:56;5.63;;;3.90;;
36377;SDS011;22402;42.746;23.606;2023-05-10T08:01:25;4.77;;;3.70;;
36377;SDS011;22402;42.746;23.606;2023-05-10T08:03:51;3.70;;;3.33;;
36377;SDS011;22402;42.746;23.606;2023-05-10T08:06:18;4.97;;;3.83;;
36377;SDS011;22402;42.746;23.606;2023-05-10T08:08:48;5.93;;;3.97;;
36377;SDS011;22402;42.746;23.606;2023-05-10T08:11:18;6.90;;;3.83;;
36377;SDS011;22402;42.746;23.606;2023-05-10T08:13:45;6.80;;;4.07;;
36377;SDS011;22402;42.746;23.606;2023-05-10T08:16:11;4.30;;;3.90;;
36377;SDS011;22402;42.746;23.606;2023-05-10T08:18:37;7.77;;;4.93;;
36377;SDS011;22402;42.746;23.606;2023-05-10T08:21:02;4.60;;;4.00;;
36377;SDS011;22402;42.746;23.606;2023-05-10T08:23:28;4.63;;;4.13;;
36377;SDS011;22402;42.746;23.606;2023-05-10T08:25:53;7.30;;;4.60;;
36377;SDS011;22402;42.746;23.606;2023-05-10T08:28:19;11.20;;;4.50;;
36377;SDS011;22402;42.746;23.606;2023-05-10T08:30:44;6.17;;;4.30;;
36377;SDS011;22402;42.746;23.606;2023-05-10T08:33:10;8.80;;;3.87;;
36377;SDS011;22402;42.746;23.606;2023-05-10T08:35:35;8.33;;;4.77;;
36377;SDS011;22402;42.746;23.606;2023-05-10T08:38:01;5.33;;;4.30;;
36377;SDS011;22402;42.746;23.606;2023-05-10T08:40:26;7.40;;;4.77;;
36377;SDS011;22402;42.746;23.606;2023-05-10T08:42:57;5.37;;;4.00;;
36377;SDS011;22402;42.746;23.606;2023-05-10T08:45:25;4.47;;;4.07;;
36377;SDS011;22402;42.746;23.606;2023-05-10T08:47:56;4.50;;;4.10;;
36377;SDS011;22402;42.746;23.606;2023-05-10T08:50:24;8.10;;;4.80;;
36377;SDS011;22402;42.746;23.606;2023-05-10T08:52:50;7.30;;;4.53;;
36377;SDS011;22402;42.746;23.606;2023-05-10T08:55:20;5.37;;;4.03;;
36377;SDS011;22402;42.746;23.606;2023-05-10T08:57:48;7.23;;;4.53;;
36377;SDS011;22402;42.746;23.606;2023-05-10T09:00:14;5.23;;;4.00;;
36377;SDS011;22402;42.746;23.606;2023-05-10T09:02:41;5.73;;;4.63;;
36377;SDS011;22402;42.746;23.606;2023-05-10T09:05:08;8.97;;;4.87;;
36377;SDS011;22402;42.746;23.606;2023-05-10T09:07:35;14.30;;;5.30;;
36377;SDS011;22402;42.746;23.606;2023-05-10T09:10:01;9.73;;;5.13;;
36377;SDS011;22402;42.746;23.606;2023-05-10T09:12:27;8.53;;;4.67;;
36377;SDS011;22402;42.746;23.606;2023-05-10T09:14:52;7.50;;;4.80;;
36377;SDS011;22402;42.746;23.606;2023-05-10T09:17:19;5.87;;;4.30;;
36377;SDS011;22402;42.746;23.606;2023-05-10T09:19:46;7.20;;;4.63;;
36377;SDS011;22402;42.746;23.606;2023-05-10T09:22:12;5.67;;;3.90;;
36377;SDS011;22402;42.746;23.606;2023-05-10T09:24:37;8.80;;;5.10;;
36377;SDS011;22402;42.746;23.606;2023-05-10T09:27:07;11.13;;;5.30;;
36377;SDS011;22402;42.746;23.606;2023-05-10T09:29:39;8.67;;;4.13;;
36377;SDS011;22402;42.746;23.606;2023-05-10T09:32:06;9.27;;;5.30;;
36377;SDS011;22402;42.746;23.606;2023-05-10T09:34:32;8.47;;;4.80;;
36377;SDS011;22402;42.746;23.606;2023-05-10T09:37:00;9.43;;;5.03;;
36377;SDS011;22402;42.746;23.606;2023-05-10T09:39:34;6.30;;;4.37;;
36377;SDS011;22402;42.746;23.606;2023-05-10T09:42:05;10.07;;;4.90;;
36377;SDS011;22402;42.746;23.606;2023-05-10T09:44:34;9.63;;;4.70;;
36377;SDS011;22402;42.746;23.606;2023-05-10T09:47:01;8.73;;;4.83;;
36377;SDS011;22402;42.746;23.606;2023-05-10T09:49:27;6.00;;;4.50;;
36377;SDS011;22402;42.746;23.606;2023-05-10T09:52:06;7.80;;;4.03;;
36377;SDS011;22402;42.746;23.606;2023-05-10T09:54:33;7.57;;;4.57;;
36377;SDS011;22402;42.746;23.606;2023-05-10T09:57:00;7.63;;;4.23;;
36377;SDS011;22402;42.746;23.606;2023-05-10T09:59:29;5.83;;;4.27;;
36377;SDS011;22402;42.746;23.606;2023-05-10T10:01:56;8.00;;;4.20;;
36377;SDS011;22402;42.746;23.606;2023-05-10T10:04:22;6.13;;;4.20;;
36377;SDS011;22402;42.746;23.606;2023-05-10T10:06:57;6.80;;;4.30;;
36377;SDS011;22402;42.746;23.606;2023-05-10T10:09:24;5.30;;;4.10;;
36377;SDS011;22402;42.746;23.606;2023-05-10T10:11:50;5.60;;;3.67;;
36377;SDS011;22402;42.746;23.606;2023-05-10T10:14:17;6.20;;;4.10;;
36377;SDS011;22402;42.746;23.606;2023-05-10T10:16:43;7.30;;;4.13;;
36377;SDS011;22402;42.746;23.606;2023-05-10T10:19:09;5.00;;;3.40;;
36377;SDS011;22402;42.746;23.606;2023-05-10T10:21:35;6.13;;;4.27;;
36377;SDS011;22402;42.746;23.606;2023-05-10T10:24:00;5.87;;;3.70;;
36377;SDS011;22402;42.746;23.606;2023-05-10T10:26:26;6.73;;;4.53;;
36377;SDS011;22402;42.746;23.606;2023-05-10T10:32:17;6.07;;;3.70;;
36377;SDS011;22402;42.746;23.606;2023-05-10T10:34:50;6.83;;;3.40;;
36377;SDS011;22402;42.746;23.606;2023-05-10T10:37:17;7.00;;;4.30;;
36377;SDS011;22402;42.746;23.606;2023-05-10T10:39:42;5.67;;;4.17;;
36377;SDS011;22402;42.746;23.606;2023-05-10T10:42:08;10.03;;;4.60;;
36377;SDS011;22402;42.746;23.606;2023-05-10T10:44:34;5.87;;;4.60;;
36377;SDS011;22402;42.746;23.606;2023-05-10T10:47:05;4.70;;;4.07;;
36377;SDS011;22402;42.746;23.606;2023-05-10T10:49:33;5.73;;;3.57;;
36377;SDS011;22402;42.746;23.606;2023-05-10T10:52:20;6.40;;;3.50;;
36377;SDS011;22402;42.746;23.606;2023-05-10T10:57:24;5.00;;;3.70;;
36377;SDS011;22402;42.746;23.606;2023-05-10T10:59:51;3.93;;;3.40;;
36377;SDS011;22402;42.746;23.606;2023-05-10T11:02:53;4.90;;;3.30;;
36377;SDS011;22402;42.746;23.606;2023-05-10T11:05:38;3.70;;;3.37;;
36377;SDS011;22402;42.746;23.606;2023-05-10T11:08:10;3.77;;;3.47;;
36377;SDS011;22402;42.746;23.606;2023-05-10T11:10:36;3.53;;;3.20;;
36377;SDS011;22402;42.746;23.606;2023-05-10T11:15:32;7.33;;;3.10;;
36377;SDS011;22402;42.746;23.606;2023-05-10T11:17:58;5.30;;;3.50;;
36377;SDS011;22402;42.746;23.606;2023-05-10T11:20:27;6.40;;;3.30;;
36377;SDS011;22402;42.746;23.606;2023-05-10T11:22:58;4.13;;;3.30;;
36377;SDS011;22402;42.746;23.606;2023-05-10T11:25:40;5.40;;;2.93;;
36377;SDS011;22402;42.746;23.606;2023-05-10T11:28:07;4.73;;;3.80;;
36377;SDS011;22402;42.746;23.606;2023-05-10T11:30:32;4.53;;;3.00;;
36377;SDS011;22402;42.746;23.606;2023-05-10T11:32:58;4.00;;;2.90;;
36377;SDS011;22402;42.746;23.606;2023-05-10T11:35:23;4.73;;;2.50;;
36377;SDS011;22402;42.746;23.606;2023-05-10T11:37:52;5.33;;;3.27;;
36377;SDS011;22402;42.746;23.606;2023-05-10T11:40:17;3.80;;;2.87;;
36377;SDS011;22402;42.746;23.606;2023-05-10T11:42:43;3.20;;;2.87;;
36377;SDS011;22402;42.746;23.606;2023-05-10T11:45:10;6.83;;;3.33;;
36377;SDS011;22402;42.746;23.606;2023-05-10T11:47:36;8.63;;;3.00;;
36377;SDS011;22402;42.746;23.606;2023-05-10T11:50:02;4.93;;;2.93;;
36377;SDS011;22402;42.746;23.606;2023-05-10T11:52:28;4.30;;;3.30;;
36377;SDS011;22402;42.746;23.606;2023-05-10T11:54:54;3.97;;;2.80;;
36377;SDS011;22402;42.746;23.606;2023-05-10T11:57:20;3.77;;;3.03;;
36377;SDS011;22402;42.746;23.606;2023-05-10T11:59:53;3.40;;;2.93;;
36377;SDS011;22402;42.746;23.606;2023-05-10T12:02:19;4.70;;;2.70;;
36377;SDS011;22402;42.746;23.606;2023-05-10T12:04:45;2.90;;;2.40;;
36377;SDS011;22402;42.746;23.606;2023-05-10T12:07:11;7.27;;;2.53;;
36377;SDS011;22402;42.746;23.606;2023-05-10T12:09:37;3.30;;;2.60;;
36377;SDS011;22402;42.746;23.606;2023-05-10T12:12:07;4.50;;;2.50;;
36377;SDS011;22402;42.746;23.606;2023-05-10T12:14:35;3.10;;;2.80;;
36377;SDS011;22402;42.746;23.606;2023-05-10T12:17:00;5.57;;;2.70;;
36377;SDS011;22402;42.746;23.606;2023-05-10T12:19:26;3.30;;;2.70;;
36377;SDS011;22402;42.746;23.606;2023-05-10T12:21:52;6.27;;;2.70;;
36377;SDS011;22402;42.746;23.606;2023-05-10T12:24:17;2.63;;;2.20;;
36377;SDS011;22402;42.746;23.606;2023-05-10T12:26:45;2.50;;;2.30;;
36377;SDS011;22402;42.746;23.606;2023-05-10T12:29:19;3.20;;;2.27;;
36377;SDS011;22402;42.746;23.606;2023-05-10T12:31:49;3.53;;;2.40;;
36377;SDS011;22402;42.746;23.606;2023-05-10T12:34:22;4.13;;;2.33;;
36377;SDS011;22402;42.746;23.606;2023-05-10T12:36:53;3.30;;;2.57;;
36377;SDS011;22402;42.746;23.606;2023-05-10T12:39:18;4.97;;;2.43;;
36377;SDS011;22402;42.746;23.606;2023-05-10T12:41:44;2.80;;;2.43;;
36377;SDS011;22402;42.746;23.606;2023-05-10T12:44:10;3.70;;;2.37;;
36377;SDS011;22402;42.746;23.606;2023-05-10T12:46:35;2.70;;;1.90;;
36377;SDS011;22402;42.746;23.606;2023-05-10T12:49:01;5.17;;;2.40;;
36377;SDS011;22402;42.746;23.606;2023-05-10T12:51:26;4.33;;;2.10;;
36377;SDS011;22402;42.746;23.606;2023-05-10T12:53:52;3.23;;;2.20;;
36377;SDS011;22402;42.746;23.606;2023-05-10T12:56:17;8.73;;;2.30;;
36377;SDS011;22402;42.746;23.606;2023-05-10T12:58:43;2.33;;;2.10;;
36377;SDS011;22402;42.746;23.606;2023-05-10T13:01:13;2.80;;;2.27;;
36377;SDS011;22402;42.746;23.606;2023-05-10T13:03:41;3.53;;;1.93;;
36377;SDS011;22402;42.746;23.606;2023-05-10T13:06:08;2.40;;;2.20;;
36377;SDS011;22402;42.746;23.606;2023-05-10T13:08:33;3.10;;;2.40;;
36377;SDS011;22402;42.746;23.606;2023-05-10T13:11:02;3.00;;;2.30;;
36377;SDS011;22402;42.746;23.606;2023-05-10T13:13:28;4.80;;;2.23;;
36377;SDS011;22402;42.746;23.606;2023-05-10T13:15:53;3.30;;;2.50;;
36377;SDS011;22402;42.746;23.606;2023-05-10T13:18:19;6.80;;;2.10;;
36377;SDS011;22402;42.746;23.606;2023-05-10T13:20:45;2.97;;;2.60;;
36377;SDS011;22402;42.746;23.606;2023-05-10T13:23:10;10.30;;;2.70;;
36377;SDS011;22402;42.746;23.606;2023-05-10T13:25:36;2.60;;;2.37;;
36377;SDS011;22402;42.746;23.606;2023-05-10T13:28:01;5.10;;;2.63;;
36377;SDS011;22402;42.746;23.606;2023-05-10T13:30:27;7.57;;;2.83;;
36377;SDS011;22402;42.746;23.606;2023-05-10T13:32:53;6.83;;;2.77;;
36377;SDS011;22402;42.746;23.606;2023-05-10T13:35:19;2.70;;;2.50;;
36377;SDS011;22402;42.746;23.606;2023-05-10T13:37:45;6.13;;;2.83;;
36377;SDS011;22402;42.746;23.606;2023-05-10T13:40:10;6.20;;;2.80;;
36377;SDS011;22402;42.746;23.606;2023-05-10T13:42:36;6.30;;;3.70;;
36377;SDS011;22402;42.746;23.606;2023-05-10T13:45:02;6.20;;;3.00;;
36377;SDS011;22402;42.746;23.606;2023-05-10T13:47:28;5.90;;;2.93;;
36377;SDS011;22402;42.746;23.606;2023-05-10T13:49:54;5.93;;;3.13;;
36377;SDS011;22402;42.746;23.606;2023-05-10T13:52:20;6.80;;;3.10;;
36377;SDS011;22402;42.746;23.606;2023-05-10T13:54:45;6.03;;;3.03;;
36377;SDS011;22402;42.746;23.606;2023-05-10T13:57:11;5.40;;;3.43;;
36377;SDS011;22402;42.746;23.606;2023-05-10T13:59:38;5.77;;;3.53;;
36377;SDS011;22402;42.746;23.606;2023-05-10T14:02:05;5.00;;;3.20;;
36377;SDS011;22402;42.746;23.606;2023-05-10T14:04:31;12.27;;;3.20;;
36377;SDS011;22402;42.746;23.606;2023-05-10T14:06:56;11.13;;;3.43;;
36377;SDS011;22402;42.746;23.606;2023-05-10T14:09:22;9.10;;;2.70;;
36377;SDS011;22402;42.746;23.606;2023-05-10T14:11:48;8.03;;;3.20;;
36377;SDS011;22402;42.746;23.606;2023-05-10T14:14:13;6.40;;;3.40;;
36377;SDS011;22402;42.746;23.606;2023-05-10T14:16:43;12.77;;;3.60;;
36377;SDS011;22402;42.746;23.606;2023-05-10T14:19:09;8.60;;;3.87;;
36377;SDS011;22402;42.746;23.606;2023-05-10T14:21:35;6.43;;;3.50;;
36377;SDS011;22402;42.746;23.606;2023-05-10T14:24:00;4.57;;;3.20;;
36377;SDS011;22402;42.746;23.606;2023-05-10T14:26:26;4.23;;;2.90;;
36377;SDS011;22402;42.746;23.606;2023-05-10T14:28:52;14.27;;;6.57;;
36377;SDS011;22402;42.746;23.606;2023-05-10T14:31:21;11.27;;;7.10;;
36377;SDS011;22402;42.746;23.606;2023-05-10T14:33:48;11.17;;;6.50;;
36377;SDS011;22402;42.746;23.606;2023-05-10T14:36:13;7.70;;;4.50;;
36377;SDS011;22402;42.746;23.606;2023-05-10T14:38:39;8.90;;;5.60;;
36377;SDS011;22402;42.746;23.606;2023-05-10T14:41:05;11.13;;;4.20;;
36377;SDS011;22402;42.746;23.606;2023-05-10T14:43:31;7.40;;;3.57;;
36377;SDS011;22402;42.746;23.606;2023-05-10T14:45:56;16.80;;;5.50;;
36377;SDS011;22402;42.746;23.606;2023-05-10T14:48:22;10.50;;;4.67;;
36377;SDS011;22402;42.746;23.606;2023-05-10T14:50:48;9.83;;;4.40;;
36377;SDS011;22402;42.746;23.606;2023-05-10T14:53:14;9.60;;;4.10;;
36377;SDS011;22402;42.746;23.606;2023-05-10T14:55:40;7.87;;;5.43;;
36377;SDS011;22402;42.746;23.606;2023-05-10T14:58:06;9.10;;;4.70;;
36377;SDS011;22402;42.746;23.606;2023-05-10T15:00:31;7.97;;;4.60;;
36377;SDS011;22402;42.746;23.606;2023-05-10T15:02:58;7.30;;;4.70;;
36377;SDS011;22402;42.746;23.606;2023-05-10T15:05:23;11.73;;;4.43;;
36377;SDS011;22402;42.746;23.606;2023-05-10T15:07:49;6.00;;;3.67;;
36377;SDS011;22402;42.746;23.606;2023-05-10T15:10:14;8.63;;;4.50;;
36377;SDS011;22402;42.746;23.606;2023-05-10T15:12:40;8.43;;;4.30;;
36377;SDS011;22402;42.746;23.606;2023-05-10T15:15:09;6.20;;;3.50;;
36377;SDS011;22402;42.746;23.606;2023-05-10T15:17:34;5.27;;;3.80;;